Time;durP1;ratioP1;P1;durP2;ratioP2;P2;SDS_P1;SDS_P2;PMS_P1;PMS_P2;Temp;Humidity;BMP_temperature;BMP_pressure;BME280_temperature;BME280_humidity;BME280_pressure;Samples;Min_cycle;Max_cycle;Signal;HPM_P1;HPM_P2
2022/01/27 00:02:24;;;;;;;2.63;0.65;;;27.90;99.90;;;;;;5034214;28;20053;-73
2022/01/27 00:05:16;;;;;;;3.80;0.60;;;28.10;99.90;;;;;;5033730;28;20037;-73
2022/01/27 00:07:36;;;;;;;1.75;0.38;;;28.10;99.90;;;;;;5033782;28;20041;-74
2022/01/27 00:12:44;;;;;;;2.83;0.63;;;28.20;99.90;;;;;;5033918;28;20025;-73
2022/01/27 00:15:14;;;;;;;2.08;0.73;;;28.10;99.90;;;;;;5033813;28;20029;-72
2022/01/27 00:17:46;;;;;;;3.17;0.50;;;28.10;99.90;;;;;;5032619;28;20029;-73
2022/01/27 00:20:15;;;;;;;2.60;0.52;;;28.10;99.90;;;;;;5033736;28;20060;-72
2022/01/27 00:22:42;;;;;;;3.80;0.85;;;27.90;99.90;;;;;;5033660;28;20041;-73
2022/01/27 00:25:11;;;;;;;4.18;0.68;;;27.80;99.90;;;;;;5033498;28;20032;-73
2022/01/27 00:27:38;;;;;;;3.92;0.60;;;28.20;99.90;;;;;;5033653;28;20017;-74
2022/01/27 00:30:08;;;;;;;2.50;0.43;;;28.40;99.90;;;;;;5033476;28;20021;-74
2022/01/27 00:32:35;;;;;;;1.52;0.68;;;28.40;99.90;;;;;;5032275;28;20072;-73
2022/01/27 00:35:04;;;;;;;3.20;0.55;;;28.50;99.90;;;;;;5033455;28;20546;-73
2022/01/27 00:37:32;;;;;;;5.30;0.77;;;28.80;99.90;;;;;;5033463;28;20051;-74
2022/01/27 00:40:00;;;;;;;3.13;0.60;;;28.90;99.90;;;;;;5033312;28;20030;-74
2022/01/27 00:42:28;;;;;;;5.53;0.47;;;29.10;99.90;;;;;;5033381;28;20032;-73
2022/01/27 00:44:57;;;;;;;4.10;0.55;;;28.90;99.90;;;;;;5032951;28;20052;-73
2022/01/27 00:47:25;;;;;;;4.38;0.65;;;28.40;99.90;;;;;;5033398;28;20025;-74
2022/01/27 00:49:52;;;;;;;2.15;0.50;;;28.50;99.90;;;;;;5033175;28;20039;-75
2022/01/27 00:52:33;;;;;;;3.10;0.55;;;28.60;99.90;;;;;;5031184;28;20037;-74
2022/01/27 00:55:01;;;;;;;3.20;0.60;;;28.50;99.90;;;;;;5033202;28;20028;-72
2022/01/27 00:57:56;;;;;;;4.47;0.60;;;28.80;99.90;;;;;;5032016;28;20110;-73
2022/01/27 01:00:20;;;;;;;2.40;0.60;;;28.80;99.90;;;;;;5032785;28;20513;-74
2022/01/27 01:03:00;;;;;;;1.58;0.40;;;28.90;99.90;;;;;;5033132;28;20045;-73
2022/01/27 01:08:54;;;;;;;2.28;0.60;;;29.10;99.90;;;;;;5033041;28;20025;-74
2022/01/27 01:16:04;;;;;;;1.25;0.35;;;29.30;99.90;;;;;;5032805;28;20363;-73
2022/01/27 01:18:52;;;;;;;2.33;0.60;;;29.30;99.90;;;;;;5032772;28;20082;-74
2022/01/27 01:32:15;;;;;;;2.70;0.50;;;29.10;99.90;;;;;;5032763;28;20385;-73
2022/01/27 01:34:46;;;;;;;1.75;0.57;;;29.40;99.90;;;;;;5032713;28;20049;-74
2022/01/27 01:37:17;;;;;;;2.15;0.50;;;29.60;99.90;;;;;;5032713;28;20022;-72
2022/01/27 01:39:45;;;;;;;4.82;0.57;;;29.30;99.90;;;;;;5032715;28;20371;-73
2022/01/27 01:42:12;;;;;;;3.15;0.60;;;29.70;99.90;;;;;;5032645;28;20026;-74
2022/01/27 01:44:41;;;;;;;2.50;0.50;;;29.80;99.90;;;;;;5032482;28;20037;-72
2022/01/27 01:47:09;;;;;;;3.53;0.80;;;29.70;99.90;;;;;;5031308;28;20391;-74
2022/01/27 01:49:36;;;;;;;3.65;0.60;;;29.90;99.90;;;;;;5032583;28;20478;-74
2022/01/27 01:52:08;;;;;;;4.88;0.80;;;30.20;99.90;;;;;;5032471;28;20025;-72
2022/01/27 01:54:35;;;;;;;3.38;0.43;;;30.00;99.90;;;;;;5032526;28;20132;-74
2022/01/27 01:57:04;;;;;;;2.85;0.60;;;29.50;99.90;;;;;;5032446;28;20431;-72
2022/01/27 01:59:32;;;;;;;3.10;0.52;;;29.60;99.90;;;;;;5031311;28;20045;-73
2022/01/27 02:01:59;;;;;;;2.95;0.50;;;29.70;99.90;;;;;;5032461;28;20022;-74
2022/01/27 02:04:26;;;;;;;2.55;0.52;;;29.20;99.90;;;;;;5036332;28;20132;-81
2022/01/27 02:06:58;;;;;;;3.58;0.90;;;29.10;99.90;;;;;;5036192;28;20486;-74
2022/01/27 02:09:51;;;;;;;5.03;0.73;;;28.90;99.90;;;;;;5036238;28;20045;-73
2022/01/27 02:17:59;;;;;;;4.05;0.57;;;29.30;99.90;;;;;;5036089;28;20513;-73
2022/01/27 02:20:31;;;;;;;5.30;0.77;;;29.30;99.90;;;;;;5034690;28;20033;-73
2022/01/27 02:22:59;;;;;;;3.75;0.65;;;29.10;99.90;;;;;;5035919;28;20022;-74
2022/01/27 02:25:26;;;;;;;3.50;0.40;;;29.10;99.90;;;;;;5035871;28;20026;-74
2022/01/27 02:28:14;;;;;;;3.72;0.60;;;29.20;99.90;;;;;;5035655;28;20028;-74
2022/01/27 02:30:41;;;;;;;5.70;0.55;;;29.70;99.90;;;;;;5035882;28;20026;-74
2022/01/27 02:33:08;;;;;;;4.43;0.70;;;29.70;99.90;;;;;;5035721;28;20021;-73
2022/01/27 02:35:36;;;;;;;3.90;0.70;;;29.80;99.90;;;;;;5035695;28;20032;-74
2022/01/27 02:38:05;;;;;;;3.20;0.60;;;30.10;99.90;;;;;;5035653;28;20501;-74
2022/01/27 02:40:43;;;;;;;3.85;0.80;;;30.10;99.90;;;;;;5035625;28;20075;-75
2022/01/27 02:43:10;;;;;;;4.63;0.82;;;29.90;99.90;;;;;;5035557;28;20136;-75
2022/01/27 02:45:46;;;;;;;4.18;0.80;;;30.10;99.90;;;;;;5034173;28;20068;-77
2022/01/27 02:48:14;;;;;;;4.90;1.25;;;30.40;99.90;;;;;;5037937;28;20223;-79
2022/01/27 02:50:43;;;;;;;3.50;0.75;;;30.20;99.90;;;;;;5035421;28;20451;-75
2022/01/27 02:53:11;;;;;;;2.95;0.77;;;30.20;99.90;;;;;;5035632;28;20136;-76
2022/01/27 02:55:41;;;;;;;5.20;0.80;;;30.60;99.90;;;;;;5035956;28;20026;-76
2022/01/27 02:58:10;;;;;;;5.75;0.80;;;30.30;99.90;;;;;;5035823;28;20025;-76
2022/01/27 03:00:39;;;;;;;4.15;0.93;;;30.10;99.90;;;;;;5036026;28;20487;-75
2022/01/27 03:03:06;;;;;;;2.65;0.47;;;30.10;99.90;;;;;;5037089;28;20021;-77
2022/01/27 03:05:34;;;;;;;5.10;0.70;;;30.20;99.90;;;;;;5035503;28;20033;-75
2022/01/27 03:08:01;;;;;;;5.20;0.70;;;30.00;99.90;;;;;;5036903;28;20020;-79
2022/01/27 03:10:34;;;;;;;3.33;0.60;;;29.70;99.90;;;;;;5037906;28;20094;-73
2022/01/27 03:13:01;;;;;;;4.28;0.70;;;29.00;99.90;;;;;;5035820;28;20022;-76
2022/01/27 03:15:29;;;;;;;5.00;0.75;;;29.00;99.90;;;;;;5033606;28;20116;-78
2022/01/27 03:17:56;;;;;;;3.20;0.98;;;29.00;99.90;;;;;;5035502;28;20071;-79
2022/01/27 03:20:31;;;;;;;4.22;0.75;;;29.10;99.90;;;;;;5035062;28;20394;-77
2022/01/27 03:23:00;;;;;;;4.22;0.88;;;29.60;99.90;;;;;;5033664;28;20403;-78
2022/01/27 03:25:27;;;;;;;3.80;0.50;;;29.70;99.90;;;;;;5034743;28;20033;-78
2022/01/27 03:27:55;;;;;;;3.97;0.68;;;29.70;99.90;;;;;;5034929;28;20390;-77
2022/01/27 03:30:22;;;;;;;4.93;0.52;;;29.90;99.90;;;;;;5034841;28;20104;-77
2022/01/27 03:32:50;;;;;;;4.68;0.77;;;29.60;99.90;;;;;;5034898;28;20018;-78
2022/01/27 03:35:17;;;;;;;5.22;0.60;;;29.50;99.90;;;;;;5034111;28;20120;-77
2022/01/27 03:37:44;;;;;;;4.85;0.75;;;29.60;99.90;;;;;;5035965;28;20021;-76
2022/01/27 03:40:12;;;;;;;5.72;0.93;;;29.90;99.90;;;;;;5035440;28;20112;-78
2022/01/27 03:42:53;;;;;;;5.05;0.60;;;30.20;99.90;;;;;;5035096;28;20076;-78
2022/01/27 03:45:21;;;;;;;5.18;0.90;;;30.50;99.90;;;;;;5035356;28;20076;-79
2022/01/27 03:47:48;;;;;;;4.85;0.90;;;30.20;99.90;;;;;;5034098;28;20117;-76
2022/01/27 03:50:15;;;;;;;3.15;0.50;;;29.70;99.90;;;;;;5032986;28;20033;-77
2022/01/27 03:52:43;;;;;;;6.05;0.75;;;29.80;99.90;;;;;;5034381;28;20024;-79
2022/01/27 03:55:10;;;;;;;5.22;0.60;;;29.80;99.90;;;;;;5032977;28;20474;-77
2022/01/27 03:57:37;;;;;;;6.50;0.80;;;29.50;99.90;;;;;;5034150;28;20026;-77
2022/01/27 04:00:14;;;;;;;6.30;1.05;;;29.60;99.90;;;;;;5034183;28;20025;-79
2022/01/27 04:02:54;;;;;;;5.35;0.93;;;29.70;99.90;;;;;;5034196;28;20071;-80
2022/01/27 04:05:22;;;;;;;3.30;0.85;;;29.70;99.90;;;;;;5034039;28;20029;-77
2022/01/27 04:07:56;;;;;;;5.28;1.00;;;29.90;99.90;;;;;;5034096;28;20029;-78
2022/01/27 04:10:23;;;;;;;6.47;0.80;;;30.00;99.90;;;;;;5034467;28;20466;-76
2022/01/27 04:12:51;;;;;;;6.13;1.10;;;30.30;99.90;;;;;;5034095;28;20079;-76
2022/01/27 04:15:18;;;;;;;8.95;1.00;;;30.50;99.90;;;;;;5034117;28;20389;-78
2022/01/27 04:17:45;;;;;;;3.42;0.80;;;30.30;99.90;;;;;;5032489;28;20478;-73
2022/01/27 04:20:13;;;;;;;2.85;0.60;;;30.30;99.90;;;;;;5032230;28;20482;-74
2022/01/27 04:22:40;;;;;;;7.65;1.13;;;29.90;99.90;;;;;;5033716;28;20367;-76
2022/01/27 04:25:09;;;;;;;4.95;1.13;;;30.10;99.90;;;;;;5033448;28;20025;-75
2022/01/27 04:27:39;;;;;;;5.40;0.88;;;30.10;99.90;;;;;;5032376;28;20075;-77
2022/01/27 04:30:14;;;;;;;5.55;0.80;;;30.00;99.90;;;;;;5016290;28;20026;-76
2022/01/27 04:32:47;;;;;;;4.30;0.88;;;29.80;99.90;;;;;;5033578;28;20026;-76
2022/01/27 04:35:18;;;;;;;4.03;0.55;;;29.70;99.90;;;;;;5033503;28;20072;-75
2022/01/27 04:37:59;;;;;;;3.47;0.90;;;29.50;99.90;;;;;;5032255;28;20064;-76
2022/01/27 04:40:44;;;;;;;4.93;0.70;;;29.80;99.90;;;;;;5032111;28;20079;-77
2022/01/27 04:43:33;;;;;;;4.13;0.50;;;30.00;99.90;;;;;;5032156;28;20033;-77
2022/01/27 04:48:52;;;;;;;3.28;0.77;;;30.10;99.90;;;;;;5033646;28;20122;-76
2022/01/27 04:51:22;;;;;;;5.93;0.90;;;29.70;99.90;;;;;;5033329;28;20017;-77
2022/01/27 04:56:21;;;;;;;3.72;0.98;;;29.50;99.90;;;;;;5033117;28;20506;-78
2022/01/27 04:58:54;;;;;;;5.63;1.35;;;29.90;99.90;;;;;;5031996;28;20025;-79
2022/01/27 05:01:29;;;;;;;4.40;1.10;;;29.40;99.90;;;;;;5031795;28;20458;-78
2022/01/27 05:04:02;;;;;;;3.08;0.50;;;29.00;99.90;;;;;;5031755;28;20035;-76
2022/01/27 05:06:30;;;;;;;5.68;0.60;;;29.10;99.90;;;;;;5031743;28;20064;-75
2022/01/27 05:08:57;;;;;;;4.72;0.90;;;29.30;99.90;;;;;;5033024;28;20080;-76
2022/01/27 05:11:35;;;;;;;3.28;0.60;;;29.40;99.90;;;;;;5032832;28;20412;-75
2022/01/27 05:14:10;;;;;;;3.25;0.60;;;29.20;99.90;;;;;;5032962;28;20018;-76
2022/01/27 05:16:38;;;;;;;6.93;0.90;;;29.10;99.90;;;;;;5032946;28;20022;-74
2022/01/27 05:19:10;;;;;;;3.92;0.85;;;29.50;99.90;;;;;;5032901;28;20116;-77
2022/01/27 05:21:37;;;;;;;4.65;0.70;;;29.50;99.90;;;;;;5031397;28;20021;-75
2022/01/27 05:24:06;;;;;;;5.00;0.70;;;29.50;99.90;;;;;;5033096;28;20047;-78
2022/01/27 05:26:34;;;;;;;3.65;0.68;;;29.90;99.90;;;;;;5032684;28;20045;-75
2022/01/27 05:29:05;;;;;;;2.95;0.60;;;29.60;99.90;;;;;;5031491;28;20017;-75
2022/01/27 05:31:33;;;;;;;4.15;0.57;;;29.60;99.90;;;;;;5032779;28;20025;-74
2022/01/27 05:34:12;;;;;;;4.28;0.60;;;29.50;99.90;;;;;;5032906;28;20025;-74
2022/01/27 05:36:39;;;;;;;4.00;0.98;;;29.80;99.90;;;;;;5031418;28;20026;-74
2022/01/27 05:39:07;;;;;;;4.38;0.93;;;29.80;99.90;;;;;;5034372;28;20549;-76
2022/01/27 05:41:34;;;;;;;6.00;0.82;;;29.60;99.90;;;;;;5036598;28;20026;-75
2022/01/27 05:44:02;;;;;;;4.22;0.68;;;29.90;99.90;;;;;;5035398;28;20035;-74
2022/01/27 05:46:29;;;;;;;4.28;1.10;;;30.20;99.90;;;;;;5036461;28;20045;-76
2022/01/27 05:48:56;;;;;;;5.35;0.70;;;30.00;99.90;;;;;;5035293;28;20368;-75
2022/01/27 05:51:24;;;;;;;4.05;0.80;;;30.20;99.90;;;;;;5035293;28;20030;-75
2022/01/27 05:53:51;;;;;;;4.03;0.75;;;30.20;99.90;;;;;;5036519;28;20028;-74
2022/01/27 05:56:18;;;;;;;6.43;0.93;;;29.80;99.90;;;;;;5036475;28;20163;-74
2022/01/27 05:58:46;;;;;;;5.93;1.02;;;29.80;99.90;;;;;;5036457;28;20100;-74
2022/01/27 06:01:14;;;;;;;5.65;0.73;;;29.50;99.90;;;;;;5036638;28;20104;-75
2022/01/27 06:03:42;;;;;;;3.85;0.80;;;29.70;99.90;;;;;;5034482;28;20075;-73
2022/01/27 06:06:09;;;;;;;5.35;0.50;;;29.60;99.90;;;;;;5034496;28;20033;-74
2022/01/27 06:08:37;;;;;;;5.63;0.63;;;29.50;99.90;;;;;;5034707;28;20025;-74
2022/01/27 06:11:04;;;;;;;5.07;1.13;;;29.40;99.90;;;;;;5036283;28;20017;-73
2022/01/27 06:13:31;;;;;;;6.05;0.80;;;29.80;99.90;;;;;;5036079;28;20097;-74
2022/01/27 06:15:59;;;;;;;7.03;1.08;;;30.00;99.90;;;;;;5034831;28;20138;-74
2022/01/27 06:18:26;;;;;;;4.47;0.70;;;30.00;99.90;;;;;;5034772;28;20025;-73
2022/01/27 06:20:59;;;;;;;4.50;0.68;;;29.70;99.90;;;;;;5036062;28;20021;-74
2022/01/27 06:23:27;;;;;;;3.13;0.60;;;30.00;99.90;;;;;;5036007;28;20048;-75
2022/01/27 06:25:54;;;;;;;3.03;0.70;;;30.00;99.90;;;;;;5035869;28;20029;-74
2022/01/27 06:28:21;;;;;;;3.47;0.60;;;29.50;99.90;;;;;;5035728;28;20378;-72
2022/01/27 06:30:48;;;;;;;2.55;0.65;;;29.40;99.90;;;;;;5035916;28;20421;-73
2022/01/27 06:33:16;;;;;;;4.07;0.77;;;29.40;99.90;;;;;;5035845;28;20025;-73
2022/01/27 06:35:43;;;;;;;4.47;1.08;;;29.10;99.90;;;;;;5034502;28;20091;-73
2022/01/27 06:38:11;;;;;;;5.40;0.90;;;29.40;99.90;;;;;;5035684;28;20112;-74
2022/01/27 06:40:38;;;;;;;5.60;1.10;;;29.40;99.90;;;;;;5035747;28;20105;-73
2022/01/27 06:43:05;;;;;;;3.47;0.85;;;29.50;99.90;;;;;;5034317;28;20025;-73
2022/01/27 06:45:33;;;;;;;5.78;1.00;;;30.00;99.90;;;;;;5035364;28;20124;-74
2022/01/27 06:48:00;;;;;;;5.40;0.93;;;29.90;99.90;;;;;;5035603;28;20029;-75
2022/01/27 06:50:28;;;;;;;4.40;0.60;;;29.70;99.90;;;;;;5034250;28;20021;-74
2022/01/27 06:52:56;;;;;;;3.65;0.80;;;29.50;99.90;;;;;;5035486;28;20022;-73
2022/01/27 06:55:23;;;;;;;5.80;1.10;;;29.20;99.90;;;;;;5033973;28;20026;-75
2022/01/27 06:57:50;;;;;;;5.38;1.02;;;28.50;99.90;;;;;;5033922;28;20021;-73
2022/01/27 07:00:18;;;;;;;4.65;0.80;;;28.00;99.90;;;;;;5034097;28;20039;-74
2022/01/27 07:02:45;;;;;;;3.25;0.60;;;28.60;99.90;;;;;;5033913;28;20371;-74
2022/01/27 07:05:15;;;;;;;5.57;0.77;;;29.40;99.90;;;;;;5034886;28;20486;-75
2022/01/27 07:07:43;;;;;;;3.47;0.60;;;29.70;99.90;;;;;;5034200;28;20026;-74
2022/01/27 07:10:11;;;;;;;4.63;0.95;;;30.20;99.90;;;;;;5033770;28;20029;-73
2022/01/27 07:12:42;;;;;;;6.15;0.82;;;30.30;99.90;;;;;;5035132;28;20067;-73
2022/01/27 07:15:10;;;;;;;4.03;0.73;;;30.30;99.90;;;;;;5035013;28;20474;-73
2022/01/27 07:17:38;;;;;;;4.25;0.70;;;30.40;99.90;;;;;;5033651;28;20026;-74
2022/01/27 07:20:06;;;;;;;5.00;0.98;;;30.50;99.90;;;;;;5034858;28;20021;-74
2022/01/27 07:22:35;;;;;;;3.45;0.55;;;30.10;99.90;;;;;;5033617;28;20028;-74
2022/01/27 07:25:05;;;;;;;7.03;1.02;;;29.90;99.90;;;;;;5034165;28;20116;-74
2022/01/27 07:27:32;;;;;;;5.65;0.68;;;29.40;99.90;;;;;;5033576;28;20151;-74
2022/01/27 07:30:00;;;;;;;3.78;0.70;;;29.20;99.90;;;;;;5033424;28;20018;-74
2022/01/27 07:32:28;;;;;;;4.43;0.85;;;29.30;99.90;;;;;;5033417;28;20108;-74
2022/01/27 07:34:55;;;;;;;4.28;0.70;;;28.90;99.90;;;;;;5033315;28;20040;-74
2022/01/27 07:37:22;;;;;;;7.43;1.20;;;28.40;99.90;;;;;;5033357;28;20029;-73
2022/01/27 07:39:50;;;;;;;4.03;0.85;;;28.00;99.90;;;;;;5033282;28;20026;-74
2022/01/27 07:42:17;;;;;;;7.75;0.95;;;27.90;99.90;;;;;;5031963;28;20029;-74
2022/01/27 07:44:44;;;;;;;4.75;0.70;;;27.30;99.90;;;;;;5031558;28;20041;-74
2022/01/27 07:47:12;;;;;;;5.22;0.80;;;26.90;99.90;;;;;;5031957;28;20034;-74
2022/01/27 07:49:39;;;;;;;5.28;1.05;;;26.60;99.90;;;;;;5033126;28;20108;-73
2022/01/27 07:52:07;;;;;;;5.55;1.05;;;26.60;99.90;;;;;;5033013;28;20097;-73
2022/01/27 07:54:34;;;;;;;5.60;1.40;;;26.50;99.90;;;;;;5033249;28;20045;-73
2022/01/27 07:57:01;;;;;;;9.15;1.33;;;26.40;99.90;;;;;;5031582;28;20026;-74
2022/01/27 07:59:29;;;;;;;7.13;1.23;;;26.40;99.90;;;;;;5031624;28;20029;-74
2022/01/27 08:01:56;;;;;;;3.75;1.10;;;26.40;99.90;;;;;;5031401;28;20029;-75
2022/01/27 08:04:25;;;;;;;5.03;1.00;;;26.40;99.90;;;;;;5032598;28;20106;-74
2022/01/27 08:06:52;;;;;;;5.35;0.88;;;26.30;99.90;;;;;;5031419;28;20021;-73
2022/01/27 08:09:19;;;;;;;4.68;1.00;;;26.10;99.90;;;;;;5032778;28;20029;-73
2022/01/27 08:11:47;;;;;;;7.85;1.15;;;26.00;99.90;;;;;;5032640;28;20113;-74
2022/01/27 08:14:14;;;;;;;5.15;1.00;;;25.90;99.90;;;;;;5032397;28;20116;-74
2022/01/27 08:16:41;;;;;;;5.85;0.85;;;25.70;99.90;;;;;;5032356;28;20013;-74
2022/01/27 08:19:09;;;;;;;6.80;1.20;;;25.50;99.90;;;;;;5030945;28;20021;-75
2022/01/27 08:21:36;;;;;;;5.68;1.08;;;25.30;99.90;;;;;;5031293;28;20053;-74
2022/01/27 08:24:03;;;;;;;7.32;1.17;;;25.20;99.90;;;;;;5032572;28;20035;-74
2022/01/27 08:26:40;;;;;;;5.38;0.93;;;25.10;99.90;;;;;;5032154;28;20450;-74
2022/01/27 08:29:12;;;;;;;6.68;1.15;;;25.10;99.90;;;;;;5032478;28;20013;-73
2022/01/27 08:34:31;;;;;;;6.95;1.27;;;24.70;99.90;;;;;;5032140;28;20083;-75
2022/01/27 08:37:00;;;;;;;7.05;1.08;;;24.60;99.90;;;;;;5032085;28;20141;-75
2022/01/27 08:39:28;;;;;;;9.88;1.35;;;24.60;99.90;;;;;;5032108;28;20021;-75
2022/01/27 08:41:56;;;;;;;7.30;1.30;;;24.50;99.90;;;;;;5030741;28;20037;-74
2022/01/27 08:44:24;;;;;;;8.85;1.15;;;24.50;99.90;;;;;;5030569;28;20044;-75
2022/01/27 08:46:51;;;;;;;8.70;1.42;;;24.40;99.90;;;;;;5032158;28;20398;-75
2022/01/27 08:49:22;;;;;;;6.63;1.40;;;24.40;99.90;;;;;;5030853;28;20021;-75
2022/01/27 08:51:49;;;;;;;5.57;0.70;;;24.40;99.90;;;;;;5032100;28;20415;-75
2022/01/27 08:54:16;;;;;;;5.80;1.40;;;24.30;99.90;;;;;;5031154;28;20028;-75
2022/01/27 08:56:44;;;;;;;5.97;1.27;;;24.20;99.90;;;;;;5030917;28;20462;-76
2022/01/27 08:59:11;;;;;;;5.28;0.95;;;24.20;99.90;;;;;;5030791;28;20132;-76
2022/01/27 09:01:40;;;;;;;9.38;1.40;;;24.10;99.90;;;;;;5031980;28;20018;-75
2022/01/27 09:04:08;;;;;;;8.18;1.20;;;24.00;99.90;;;;;;5031970;28;20017;-75
2022/01/27 09:06:36;;;;;;;6.03;1.20;;;24.00;99.90;;;;;;5031795;28;20148;-75
2022/01/27 09:09:05;;;;;;;7.10;1.20;;;24.00;99.90;;;;;;5032850;28;20476;-75
2022/01/27 09:11:33;;;;;;;5.90;1.15;;;24.00;99.90;;;;;;5033353;28;20045;-76
2022/01/27 09:14:03;;;;;;;5.40;0.90;;;23.90;99.90;;;;;;5031320;28;20519;-75
2022/01/27 09:16:31;;;;;;;7.65;1.52;;;23.90;99.90;;;;;;5031818;28;20032;-76
2022/01/27 09:19:01;;;;;;;7.53;0.93;;;23.90;99.90;;;;;;5015170;28;20073;-75
2022/01/27 09:21:40;;;;;;;6.87;1.47;;;23.80;99.90;;;;;;5031715;28;20030;-74
2022/01/27 09:24:14;;;;;;;5.40;1.15;;;23.80;99.90;;;;;;5031530;28;20478;-75
2022/01/27 09:29:21;;;;;;;7.72;1.30;;;23.70;99.90;;;;;;5032745;28;20029;-76
2022/01/27 09:31:49;;;;;;;7.57;1.35;;;23.70;99.90;;;;;;5031554;28;20056;-76
2022/01/27 09:34:18;;;;;;;8.68;1.05;;;23.70;99.90;;;;;;5032810;28;20021;-75
2022/01/27 09:36:54;;;;;;;7.50;1.10;;;23.70;99.90;;;;;;5032742;28;20059;-75
2022/01/27 09:39:23;;;;;;;6.85;1.25;;;23.70;99.90;;;;;;5031531;28;20482;-75
2022/01/27 09:41:55;;;;;;;7.95;1.42;;;23.60;99.90;;;;;;5032861;28;20025;-76
2022/01/27 09:44:31;;;;;;;8.48;1.25;;;23.60;99.90;;;;;;5031270;28;20037;-76
2022/01/27 09:47:02;;;;;;;9.32;1.42;;;23.60;99.90;;;;;;5032803;28;20022;-75
2022/01/27 09:49:41;;;;;;;6.63;1.20;;;23.50;99.90;;;;;;5032718;28;20025;-76
2022/01/27 09:52:09;;;;;;;8.25;1.65;;;23.50;99.90;;;;;;5031464;28;20113;-76
2022/01/27 09:54:37;;;;;;;9.43;1.58;;;23.50;99.90;;;;;;5031344;28;20029;-75
2022/01/27 09:57:05;;;;;;;6.93;1.50;;;23.50;99.90;;;;;;5032637;28;20049;-75
2022/01/27 09:59:33;;;;;;;11.30;1.38;;;23.40;99.90;;;;;;5032730;28;20025;-76
2022/01/27 10:02:08;;;;;;;6.82;1.17;;;23.40;99.90;;;;;;5032702;28;20142;-75
2022/01/27 10:04:54;;;;;;;10.10;1.48;;;23.40;99.90;;;;;;5032532;28;20025;-75
2022/01/27 10:07:24;;;;;;;9.45;1.40;;;23.40;99.90;;;;;;5032634;28;20049;-75
2022/01/27 10:09:58;;;;;;;7.75;1.30;;;23.40;99.90;;;;;;5032484;28;20049;-75
2022/01/27 10:12:28;;;;;;;11.85;2.05;;;23.40;99.90;;;;;;5032519;28;20021;-76
2022/01/27 10:15:10;;;;;;;12.40;2.22;;;23.40;99.90;;;;;;5032511;28;20109;-75
2022/01/27 10:17:40;;;;;;;9.23;1.92;;;23.40;99.90;;;;;;5030950;28;20029;-75
2022/01/27 10:20:18;;;;;;;8.10;1.17;;;23.40;99.90;;;;;;5031013;28;20036;-77
2022/01/27 10:23:09;;;;;;;7.45;1.02;;;23.30;99.90;;;;;;5032314;28;20433;-75
2022/01/27 10:25:58;;;;;;;11.07;1.40;;;23.30;99.90;;;;;;5032935;28;20038;-75
2022/01/27 10:29:08;;;;;;;7.68;1.30;;;23.30;99.90;;;;;;5034714;28;20093;-76
2022/01/27 10:31:39;;;;;;;8.75;1.00;;;23.30;99.90;;;;;;5034685;28;20482;-75
2022/01/27 10:34:10;;;;;;;8.57;1.30;;;23.30;99.90;;;;;;5035868;28;20103;-76
2022/01/27 10:36:44;;;;;;;7.38;1.50;;;23.30;99.90;;;;;;5034654;28;20029;-75
2022/01/27 10:39:18;;;;;;;5.78;1.45;;;23.30;99.90;;;;;;5035837;28;20026;-75
2022/01/27 10:42:08;;;;;;;8.25;1.10;;;23.30;99.90;;;;;;5035818;28;20018;-75
2022/01/27 10:44:54;;;;;;;10.73;1.80;;;23.30;99.90;;;;;;5035462;28;20047;-75
2022/01/27 10:47:27;;;;;;;5.60;1.02;;;23.30;99.90;;;;;;5034270;28;20022;-76
2022/01/27 10:50:05;;;;;;;7.75;1.17;;;23.30;99.90;;;;;;5034350;28;20025;-75
2022/01/27 10:52:41;;;;;;;6.95;1.25;;;23.30;99.90;;;;;;5034316;28;20445;-76
2022/01/27 10:55:14;;;;;;;7.65;1.15;;;23.30;99.90;;;;;;5034204;28;20383;-75
2022/01/27 10:57:49;;;;;;;12.38;1.88;;;23.40;99.90;;;;;;5034253;28;20025;-75
2022/01/27 11:00:23;;;;;;;11.00;1.30;;;23.30;99.90;;;;;;5034203;28;20022;-75
2022/01/27 11:03:01;;;;;;;8.93;1.20;;;23.30;99.90;;;;;;5035467;28;20105;-75
2022/01/27 11:05:38;;;;;;;11.02;1.48;;;23.40;99.90;;;;;;5033911;28;20032;-75
2022/01/27 11:08:06;;;;;;;8.50;1.10;;;23.40;99.90;;;;;;5035206;28;20025;-75
2022/01/27 11:10:35;;;;;;;10.07;1.40;;;23.40;99.90;;;;;;5033907;28;20045;-75
2022/01/27 11:13:02;;;;;;;7.18;1.33;;;23.40;99.90;;;;;;5035210;28;20026;-75
2022/01/27 11:15:30;;;;;;;7.28;1.20;;;23.40;99.90;;;;;;5035108;28;20021;-75
2022/01/27 11:17:58;;;;;;;4.75;1.52;;;23.40;99.90;;;;;;5035039;28;20021;-76
2022/01/27 11:20:49;;;;;;;8.38;1.20;;;23.40;99.90;;;;;;5035038;28;20025;-75
2022/01/27 11:26:13;;;;;;;7.97;1.08;;;23.40;99.90;;;;;;5034940;28;20084;-75
2022/01/27 11:28:47;;;;;;;7.05;1.10;;;23.40;99.90;;;;;;5033675;28;20025;-76
2022/01/27 11:31:49;;;;;;;9.43;1.10;;;23.40;99.90;;;;;;5034879;28;20014;-75
2022/01/27 11:34:16;;;;;;;8.32;1.10;;;23.40;99.90;;;;;;5034736;28;20018;-75
2022/01/27 11:37:03;;;;;;;7.15;1.08;;;23.40;99.90;;;;;;5032830;28;20499;-75
2022/01/27 11:39:50;;;;;;;10.32;1.77;;;23.40;99.90;;;;;;5034751;28;20072;-75
2022/01/27 11:42:41;;;;;;;7.90;1.25;;;23.30;99.90;;;;;;5033443;28;20563;-76
2022/01/27 11:45:33;;;;;;;13.00;2.33;;;23.30;99.90;;;;;;5033256;28;20076;-76
2022/01/27 11:48:08;;;;;;;6.22;1.38;;;23.30;99.90;;;;;;5034719;28;20033;-75
2022/01/27 11:50:48;;;;;;;9.50;1.17;;;23.20;99.90;;;;;;5033287;28;20021;-75
2022/01/27 11:53:40;;;;;;;11.45;1.55;;;23.20;99.90;;;;;;5034556;28;20360;-75
2022/01/27 11:56:30;;;;;;;10.80;1.50;;;23.10;99.90;;;;;;5033034;28;20029;-75
2022/01/27 11:59:01;;;;;;;8.00;1.55;;;23.10;99.90;;;;;;5033112;28;20026;-75
2022/01/27 12:01:36;;;;;;;10.80;1.23;;;23.10;99.90;;;;;;5034452;28;20021;-75
2022/01/27 12:04:06;;;;;;;9.32;1.50;;;23.00;99.90;;;;;;5034232;28;20544;-75
2022/01/27 12:06:36;;;;;;;11.00;1.35;;;23.10;99.90;;;;;;5032789;28;20393;-76
2022/01/27 12:09:19;;;;;;;10.87;2.07;;;23.00;99.90;;;;;;5034123;28;20022;-76
2022/01/27 12:11:52;;;;;;;11.07;1.40;;;23.00;99.90;;;;;;5034088;28;20024;-76
2022/01/27 12:14:24;;;;;;;11.75;1.60;;;23.00;99.90;;;;;;5032850;28;20075;-76
2022/01/27 12:17:10;;;;;;;9.57;1.52;;;22.90;99.90;;;;;;5034068;28;20024;-76
2022/01/27 12:19:48;;;;;;;8.73;2.05;;;22.90;99.90;;;;;;5034008;28;20383;-76
2022/01/27 12:22:16;;;;;;;10.70;1.45;;;22.90;99.90;;;;;;5032620;28;20021;-75
2022/01/27 12:25:00;;;;;;;6.40;1.42;;;22.90;99.90;;;;;;5032502;28;20041;-76
2022/01/27 12:27:29;;;;;;;7.60;1.58;;;22.90;99.90;;;;;;5032554;28;20513;-75
2022/01/27 12:29:58;;;;;;;11.18;1.55;;;22.90;99.90;;;;;;5033778;28;20352;-75
2022/01/27 12:32:28;;;;;;;9.05;1.25;;;23.00;99.90;;;;;;5033675;28;20057;-75
2022/01/27 12:35:14;;;;;;;11.23;1.92;;;23.00;99.90;;;;;;5033631;28;20029;-75
2022/01/27 12:37:46;;;;;;;12.30;1.70;;;23.00;99.90;;;;;;5033745;28;20084;-75
2022/01/27 12:40:33;;;;;;;8.73;1.50;;;23.10;99.90;;;;;;5032284;28;20057;-75
2022/01/27 12:43:03;;;;;;;10.60;1.80;;;23.10;99.90;;;;;;5033663;28;20026;-75
2022/01/27 12:45:37;;;;;;;9.48;1.50;;;23.10;99.90;;;;;;5033247;28;20049;-75
2022/01/27 12:48:12;;;;;;;7.30;1.33;;;23.10;99.90;;;;;;5031254;28;20026;-75
2022/01/27 12:50:40;;;;;;;9.70;1.60;;;23.10;99.90;;;;;;5033439;28;20021;-75
2022/01/27 12:53:12;;;;;;;9.25;1.63;;;23.10;99.90;;;;;;5032133;28;20553;-75
2022/01/27 12:55:42;;;;;;;8.63;1.40;;;23.10;99.90;;;;;;5033459;28;20021;-75
2022/01/27 12:58:17;;;;;;;11.35;1.77;;;23.10;99.90;;;;;;5032427;28;20049;-75
2022/01/27 13:00:47;;;;;;;7.03;1.48;;;23.10;99.90;;;;;;5033344;28;20061;-75
2022/01/27 13:03:15;;;;;;;9.52;1.33;;;23.10;99.90;;;;;;5033240;28;20486;-75
2022/01/27 13:05:53;;;;;;;10.25;1.40;;;23.10;99.90;;;;;;5033136;28;20029;-75
2022/01/27 13:08:31;;;;;;;11.52;1.60;;;23.10;99.90;;;;;;5033107;28;20417;-76
2022/01/27 13:11:09;;;;;;;7.68;1.20;;;23.10;99.90;;;;;;5033223;28;20491;-76
2022/01/27 13:13:38;;;;;;;10.20;1.60;;;23.10;99.90;;;;;;5033186;28;20024;-73
2022/01/27 13:16:13;;;;;;;10.85;1.55;;;23.10;99.90;;;;;;5031780;28;20529;-76
2022/01/27 13:18:50;;;;;;;9.88;1.42;;;23.10;99.90;;;;;;5031747;28;20086;-76
2022/01/27 13:21:32;;;;;;;9.95;1.45;;;23.00;99.90;;;;;;5033008;28;20410;-76
2022/01/27 13:24:08;;;;;;;11.40;1.10;;;23.10;99.90;;;;;;5031744;28;20120;-74
2022/01/27 13:26:36;;;;;;;11.15;1.65;;;23.10;99.90;;;;;;5032873;28;20344;-74
2022/01/27 13:29:03;;;;;;;13.95;1.75;;;23.10;99.90;;;;;;5031653;28;20033;-74
2022/01/27 13:31:31;;;;;;;8.07;1.30;;;23.10;99.90;;;;;;5031598;28;20033;-74
2022/01/27 13:34:03;;;;;;;9.25;1.23;;;23.10;99.90;;;;;;5032933;28;20022;-74
2022/01/27 13:36:36;;;;;;;7.55;1.20;;;23.00;99.90;;;;;;5031581;28;20433;-75
2022/01/27 13:41:41;;;;;;;7.45;1.15;;;23.00;99.90;;;;;;5032808;28;20017;-76
2022/01/27 13:44:17;;;;;;;7.82;1.40;;;23.00;99.90;;;;;;5031547;28;20022;-75
2022/01/27 13:46:54;;;;;;;7.38;1.50;;;23.10;99.90;;;;;;5032680;28;20072;-75
2022/01/27 13:49:34;;;;;;;10.88;1.15;;;23.10;99.90;;;;;;5031437;28;20049;-75
2022/01/27 13:52:13;;;;;;;9.60;1.17;;;23.00;99.90;;;;;;5031553;28;20022;-75